sensor_id;sensor_type;location;lat;lon;timestamp;temperature;humidity
314;DHT22;143;51.634;7.112;2023-04-01T00:00:25;9.90;1.00
314;DHT22;143;51.634;7.112;2023-04-01T00:02:51;10.00;1.00
314;DHT22;143;51.634;7.112;2023-04-01T00:05:17;9.80;1.00
314;DHT22;143;51.634;7.112;2023-04-01T00:07:43;9.90;1.00
314;DHT22;143;51.634;7.112;2023-04-01T00:10:10;10.00;1.00
314;DHT22;143;51.634;7.112;2023-04-01T00:12:37;9.90;1.00
314;DHT22;143;51.634;7.112;2023-04-01T00:15:04;9.80;1.00
314;DHT22;143;51.634;7.112;2023-04-01T00:17:30;9.80;1.00
314;DHT22;143;51.634;7.112;2023-04-01T00:19:57;9.90;1.00
314;DHT22;143;51.634;7.112;2023-04-01T00:22:24;9.80;1.00
314;DHT22;143;51.634;7.112;2023-04-01T00:24:50;9.90;1.00
314;DHT22;143;51.634;7.112;2023-04-01T00:27:16;9.70;1.00
314;DHT22;143;51.634;7.112;2023-04-01T00:29:46;9.80;1.00
314;DHT22;143;51.634;7.112;2023-04-01T00:32:14;10.00;1.00
314;DHT22;143;51.634;7.112;2023-04-01T00:34:40;9.50;1.00
314;DHT22;143;51.634;7.112;2023-04-01T00:37:07;9.60;1.00
314;DHT22;143;51.634;7.112;2023-04-01T00:39:34;9.60;1.00
314;DHT22;143;51.634;7.112;2023-04-01T00:42:00;9.90;1.00
314;DHT22;143;51.634;7.112;2023-04-01T00:44:29;9.40;1.00
314;DHT22;143;51.634;7.112;2023-04-01T00:46:55;9.80;1.00
314;DHT22;143;51.634;7.112;2023-04-01T00:49:28;9.80;1.00
314;DHT22;143;51.634;7.112;2023-04-01T00:51:57;9.60;1.00
314;DHT22;143;51.634;7.112;2023-04-01T00:54:27;9.80;1.00
314;DHT22;143;51.634;7.112;2023-04-01T00:56:57;9.90;1.00
314;DHT22;143;51.634;7.112;2023-04-01T00:59:42;9.50;1.00
314;DHT22;143;51.634;7.112;2023-04-01T01:02:11;9.70;1.00
314;DHT22;143;51.634;7.112;2023-04-01T01:04:38;9.50;1.00
314;DHT22;143;51.634;7.112;2023-04-01T01:10:13;9.70;1.00
314;DHT22;143;51.634;7.112;2023-04-01T01:12:47;9.60;1.00
314;DHT22;143;51.634;7.112;2023-04-01T01:29:22;9.70;1.00
314;DHT22;143;51.634;7.112;2023-04-01T01:32:03;9.60;1.00
314;DHT22;143;51.634;7.112;2023-04-01T01:34:53;9.70;1.00
314;DHT22;143;51.634;7.112;2023-04-01T01:37:22;9.80;1.00
314;DHT22;143;51.634;7.112;2023-04-01T01:39:56;9.60;1.00
314;DHT22;143;51.634;7.112;2023-04-01T01:42:25;9.60;1.00
314;DHT22;143;51.634;7.112;2023-04-01T01:44:54;9.90;1.00
314;DHT22;143;51.634;7.112;2023-04-01T01:47:22;9.50;1.00
314;DHT22;143;51.634;7.112;2023-04-01T01:49:49;9.80;1.00
314;DHT22;143;51.634;7.112;2023-04-01T01:52:17;9.60;1.00
314;DHT22;143;51.634;7.112;2023-04-01T01:54:53;9.50;1.00
314;DHT22;143;51.634;7.112;2023-04-01T01:57:23;9.70;1.00
314;DHT22;143;51.634;7.112;2023-04-01T01:59:52;9.40;1.00
314;DHT22;143;51.634;7.112;2023-04-01T02:02:21;9.50;1.00
314;DHT22;143;51.634;7.112;2023-04-01T02:04:49;9.40;1.00
314;DHT22;143;51.634;7.112;2023-04-01T02:07:23;9.50;1.00
314;DHT22;143;51.634;7.112;2023-04-01T02:09:51;9.50;1.00
314;DHT22;143;51.634;7.112;2023-04-01T02:12:17;9.30;1.00
314;DHT22;143;51.634;7.112;2023-04-01T02:15:00;9.50;1.00
314;DHT22;143;51.634;7.112;2023-04-01T02:17:29;9.40;1.00
314;DHT22;143;51.634;7.112;2023-04-01T02:20:03;9.60;1.00
314;DHT22;143;51.634;7.112;2023-04-01T02:22:34;9.50;1.00
314;DHT22;143;51.634;7.112;2023-04-01T02:25:07;9.40;1.00
314;DHT22;143;51.634;7.112;2023-04-01T02:27:33;9.50;1.00
314;DHT22;143;51.634;7.112;2023-04-01T02:29:59;9.40;1.00
314;DHT22;143;51.634;7.112;2023-04-01T02:32:25;9.50;1.00
314;DHT22;143;51.634;7.112;2023-04-01T02:34:52;9.40;1.00
314;DHT22;143;51.634;7.112;2023-04-01T02:37:18;9.30;1.00
314;DHT22;143;51.634;7.112;2023-04-01T02:39:45;9.40;1.00
314;DHT22;143;51.634;7.112;2023-04-01T02:42:10;9.50;1.00
314;DHT22;143;51.634;7.112;2023-04-01T02:44:36;9.30;1.00
314;DHT22;143;51.634;7.112;2023-04-01T02:47:02;9.50;1.00
314;DHT22;143;51.634;7.112;2023-04-01T02:49:28;9.20;1.00
314;DHT22;143;51.634;7.112;2023-04-01T02:51:53;9.50;1.00
314;DHT22;143;51.634;7.112;2023-04-01T02:54:20;9.50;1.00
314;DHT22;143;51.634;7.112;2023-04-01T02:56:45;9.40;1.00
314;DHT22;143;51.634;7.112;2023-04-01T02:59:11;9.60;1.00
314;DHT22;143;51.634;7.112;2023-04-01T03:01:37;9.50;1.00
314;DHT22;143;51.634;7.112;2023-04-01T03:04:04;9.60;1.00
314;DHT22;143;51.634;7.112;2023-04-01T03:06:29;9.50;1.00
314;DHT22;143;51.634;7.112;2023-04-01T03:08:55;9.50;1.00
314;DHT22;143;51.634;7.112;2023-04-01T03:11:21;9.60;1.00
314;DHT22;143;51.634;7.112;2023-04-01T03:13:47;9.70;1.00
314;DHT22;143;51.634;7.112;2023-04-01T03:16:14;9.60;1.00
314;DHT22;143;51.634;7.112;2023-04-01T03:18:40;9.60;1.00
314;DHT22;143;51.634;7.112;2023-04-01T03:21:23;9.70;1.00
314;DHT22;143;51.634;7.112;2023-04-01T03:23:49;9.60;1.00
314;DHT22;143;51.634;7.112;2023-04-01T03:26:15;9.60;1.00
314;DHT22;143;51.634;7.112;2023-04-01T03:28:41;9.70;1.00
314;DHT22;143;51.634;7.112;2023-04-01T03:31:07;9.60;1.00
314;DHT22;143;51.634;7.112;2023-04-01T03:33:33;9.50;1.00
314;DHT22;143;51.634;7.112;2023-04-01T03:35:59;9.50;1.00
314;DHT22;143;51.634;7.112;2023-04-01T03:38:24;9.60;1.00
314;DHT22;143;51.634;7.112;2023-04-01T03:40:50;9.50;1.00
314;DHT22;143;51.634;7.112;2023-04-01T03:43:16;9.70;1.00
314;DHT22;143;51.634;7.112;2023-04-01T03:45:49;9.50;1.00
314;DHT22;143;51.634;7.112;2023-04-01T03:48:15;9.70;1.00
314;DHT22;143;51.634;7.112;2023-04-01T03:50:41;9.80;1.00
314;DHT22;143;51.634;7.112;2023-04-01T03:53:07;9.70;1.00
314;DHT22;143;51.634;7.112;2023-04-01T03:55:35;9.70;1.00
314;DHT22;143;51.634;7.112;2023-04-01T03:58:00;9.50;1.00
314;DHT22;143;51.634;7.112;2023-04-01T04:00:28;9.60;1.00
314;DHT22;143;51.634;7.112;2023-04-01T04:02:54;9.50;1.00
314;DHT22;143;51.634;7.112;2023-04-01T04:05:22;9.50;1.00
314;DHT22;143;51.634;7.112;2023-04-01T04:07:48;9.60;1.00
314;DHT22;143;51.634;7.112;2023-04-01T04:10:14;9.70;1.00
314;DHT22;143;51.634;7.112;2023-04-01T04:12:40;9.70;1.00
314;DHT22;143;51.634;7.112;2023-04-01T04:15:07;9.80;1.00
314;DHT22;143;51.634;7.112;2023-04-01T04:17:32;9.40;1.00
314;DHT22;143;51.634;7.112;2023-04-01T04:19:58;9.60;1.00
314;DHT22;143;51.634;7.112;2023-04-01T04:22:24;9.60;1.00
314;DHT22;143;51.634;7.112;2023-04-01T04:24:50;9.70;1.00
314;DHT22;143;51.634;7.112;2023-04-01T04:27:15;9.50;1.00
314;DHT22;143;51.634;7.112;2023-04-01T04:29:41;9.60;1.00
314;DHT22;143;51.634;7.112;2023-04-01T04:32:07;9.60;1.00
314;DHT22;143;51.634;7.112;2023-04-01T04:34:32;9.60;1.00
314;DHT22;143;51.634;7.112;2023-04-01T04:36:58;9.60;1.00
314;DHT22;143;51.634;7.112;2023-04-01T04:39:24;9.70;1.00
314;DHT22;143;51.634;7.112;2023-04-01T04:41:50;9.60;1.00
314;DHT22;143;51.634;7.112;2023-04-01T04:44:15;9.50;1.00
314;DHT22;143;51.634;7.112;2023-04-01T04:46:41;9.40;1.00
314;DHT22;143;51.634;7.112;2023-04-01T04:49:07;9.40;1.00
314;DHT22;143;51.634;7.112;2023-04-01T04:51:33;9.70;1.00
314;DHT22;143;51.634;7.112;2023-04-01T04:54:01;9.80;1.00
314;DHT22;143;51.634;7.112;2023-04-01T04:56:27;9.60;1.00
314;DHT22;143;51.634;7.112;2023-04-01T04:58:53;9.50;1.00
314;DHT22;143;51.634;7.112;2023-04-01T05:01:19;9.60;1.00
314;DHT22;143;51.634;7.112;2023-04-01T05:03:45;9.60;1.00
314;DHT22;143;51.634;7.112;2023-04-01T05:06:13;9.70;1.00
314;DHT22;143;51.634;7.112;2023-04-01T05:08:39;9.70;1.00
314;DHT22;143;51.634;7.112;2023-04-01T05:11:09;9.50;1.00
314;DHT22;143;51.634;7.112;2023-04-01T05:13:37;9.80;1.00
314;DHT22;143;51.634;7.112;2023-04-01T05:16:03;9.80;1.00
314;DHT22;143;51.634;7.112;2023-04-01T05:18:32;9.90;1.00
314;DHT22;143;51.634;7.112;2023-04-01T05:20:58;9.50;1.00
314;DHT22;143;51.634;7.112;2023-04-01T05:23:24;9.90;1.00
314;DHT22;143;51.634;7.112;2023-04-01T05:25:50;9.90;1.00
314;DHT22;143;51.634;7.112;2023-04-01T05:28:18;9.70;1.00
314;DHT22;143;51.634;7.112;2023-04-01T05:30:44;9.50;1.00
314;DHT22;143;51.634;7.112;2023-04-01T05:33:11;9.50;1.00
314;DHT22;143;51.634;7.112;2023-04-01T05:35:37;9.80;1.00
314;DHT22;143;51.634;7.112;2023-04-01T05:38:03;9.80;1.00
314;DHT22;143;51.634;7.112;2023-04-01T05:40:30;9.50;1.00
314;DHT22;143;51.634;7.112;2023-04-01T05:42:56;9.60;1.00
314;DHT22;143;51.634;7.112;2023-04-01T05:45:22;9.80;1.00
314;DHT22;143;51.634;7.112;2023-04-01T05:47:47;9.90;1.00
314;DHT22;143;51.634;7.112;2023-04-01T05:50:13;9.80;1.00
314;DHT22;143;51.634;7.112;2023-04-01T05:52:39;9.80;1.00
314;DHT22;143;51.634;7.112;2023-04-01T05:55:05;9.80;1.00
314;DHT22;143;51.634;7.112;2023-04-01T05:57:31;9.60;1.00
314;DHT22;143;51.634;7.112;2023-04-01T05:59:57;9.60;1.00
314;DHT22;143;51.634;7.112;2023-04-01T06:02:23;9.80;1.00
314;DHT22;143;51.634;7.112;2023-04-01T06:04:49;9.80;1.00
314;DHT22;143;51.634;7.112;2023-04-01T06:07:17;9.70;1.00
314;DHT22;143;51.634;7.112;2023-04-01T06:09:44;9.90;1.00
314;DHT22;143;51.634;7.112;2023-04-01T06:18:10;9.80;1.00
314;DHT22;143;51.634;7.112;2023-04-01T06:26:35;9.80;1.00
314;DHT22;143;51.634;7.112;2023-04-01T06:29:06;9.80;1.00
314;DHT22;143;51.634;7.112;2023-04-01T06:34:23;9.80;1.00
314;DHT22;143;51.634;7.112;2023-04-01T06:55:51;9.80;1.00
314;DHT22;143;51.634;7.112;2023-04-01T07:00:56;9.80;1.00
314;DHT22;143;51.634;7.112;2023-04-01T07:03:43;9.70;1.00
314;DHT22;143;51.634;7.112;2023-04-01T07:06:21;9.70;1.00
314;DHT22;143;51.634;7.112;2023-04-01T07:08:49;9.50;1.00
314;DHT22;143;51.634;7.112;2023-04-01T07:11:31;9.60;1.00
314;DHT22;143;51.634;7.112;2023-04-01T07:17:41;9.70;1.00
314;DHT22;143;51.634;7.112;2023-04-01T07:22:39;9.70;1.00
314;DHT22;143;51.634;7.112;2023-04-01T07:25:13;9.80;1.00
314;DHT22;143;51.634;7.112;2023-04-01T07:27:38;9.80;1.00
314;DHT22;143;51.634;7.112;2023-04-01T07:30:16;9.70;1.00
314;DHT22;143;51.634;7.112;2023-04-01T07:38:34;9.60;1.00
314;DHT22;143;51.634;7.112;2023-04-01T07:41:33;9.80;1.00
314;DHT22;143;51.634;7.112;2023-04-01T07:44:17;9.90;1.00
314;DHT22;143;51.634;7.112;2023-04-01T07:47:28;9.70;1.00
314;DHT22;143;51.634;7.112;2023-04-01T07:52:51;9.80;1.00
314;DHT22;143;51.634;7.112;2023-04-01T08:01:13;9.90;1.00
314;DHT22;143;51.634;7.112;2023-04-01T08:12:21;9.80;1.00
314;DHT22;143;51.634;7.112;2023-04-01T08:20:20;9.90;1.00
314;DHT22;143;51.634;7.112;2023-04-01T08:23:10;9.80;1.00
314;DHT22;143;51.634;7.112;2023-04-01T08:25:40;9.80;1.00
314;DHT22;143;51.634;7.112;2023-04-01T08:28:23;10.00;1.00
314;DHT22;143;51.634;7.112;2023-04-01T08:30:58;9.80;1.00
314;DHT22;143;51.634;7.112;2023-04-01T08:33:28;9.80;1.00
314;DHT22;143;51.634;7.112;2023-04-01T08:35:56;9.90;1.00
314;DHT22;143;51.634;7.112;2023-04-01T08:38:52;9.90;1.00
314;DHT22;143;51.634;7.112;2023-04-01T09:06:40;10.00;1.00
314;DHT22;143;51.634;7.112;2023-04-01T09:09:42;10.10;1.00
314;DHT22;143;51.634;7.112;2023-04-01T09:23:54;10.00;4.20
314;DHT22;143;51.634;7.112;2023-04-01T09:27:06;10.30;4.30
314;DHT22;143;51.634;7.112;2023-04-01T09:32:53;10.20;6.10
314;DHT22;143;51.634;7.112;2023-04-01T09:47:12;10.20;8.60
314;DHT22;143;51.634;7.112;2023-04-01T09:50:42;10.30;8.20
314;DHT22;143;51.634;7.112;2023-04-01T10:04:24;10.40;10.00
314;DHT22;143;51.634;7.112;2023-04-01T10:27:34;10.70;1.00
314;DHT22;143;51.634;7.112;2023-04-01T10:32:57;10.80;1.00
314;DHT22;143;51.634;7.112;2023-04-01T10:52:55;10.80;1.00
314;DHT22;143;51.634;7.112;2023-04-01T11:18:17;11.20;1.00
314;DHT22;143;51.634;7.112;2023-04-01T11:32:31;11.40;1.00
314;DHT22;143;51.634;7.112;2023-04-01T11:35:23;11.00;1.00
314;DHT22;143;51.634;7.112;2023-04-01T11:40:37;11.20;1.00
314;DHT22;143;51.634;7.112;2023-04-01T11:43:44;11.10;1.00
314;DHT22;143;51.634;7.112;2023-04-01T11:51:55;11.10;1.00
314;DHT22;143;51.634;7.112;2023-04-01T11:55:01;11.00;1.00
314;DHT22;143;51.634;7.112;2023-04-01T12:06:14;10.60;1.00
314;DHT22;143;51.634;7.112;2023-04-01T12:09:22;10.80;1.00
314;DHT22;143;51.634;7.112;2023-04-01T12:22:43;11.00;1.00
314;DHT22;143;51.634;7.112;2023-04-01T12:25:38;10.80;1.00
314;DHT22;143;51.634;7.112;2023-04-01T12:30:53;10.90;1.00
314;DHT22;143;51.634;7.112;2023-04-01T12:41:14;11.10;1.00
314;DHT22;143;51.634;7.112;2023-04-01T12:44:08;11.00;1.00
314;DHT22;143;51.634;7.112;2023-04-01T12:46:54;11.10;1.00
314;DHT22;143;51.634;7.112;2023-04-01T13:22:52;10.90;1.00
314;DHT22;143;51.634;7.112;2023-04-01T13:28:33;10.80;1.00
314;DHT22;143;51.634;7.112;2023-04-01T13:34:23;10.90;1.00
314;DHT22;143;51.634;7.112;2023-04-01T13:42:24;10.90;1.00
314;DHT22;143;51.634;7.112;2023-04-01T13:44:54;10.90;1.00
314;DHT22;143;51.634;7.112;2023-04-01T13:52:54;11.00;1.00
314;DHT22;143;51.634;7.112;2023-04-01T13:55:30;11.00;1.00
314;DHT22;143;51.634;7.112;2023-04-01T14:01:15;11.20;1.00
314;DHT22;143;51.634;7.112;2023-04-01T14:06:36;10.90;1.00
314;DHT22;143;51.634;7.112;2023-04-01T14:09:24;11.10;1.00
314;DHT22;143;51.634;7.112;2023-04-01T14:20:44;11.10;1.00
314;DHT22;143;51.634;7.112;2023-04-01T14:23:11;11.00;1.00
314;DHT22;143;51.634;7.112;2023-04-01T14:34:11;11.20;1.00
314;DHT22;143;51.634;7.112;2023-04-01T14:36:46;11.20;1.00
314;DHT22;143;51.634;7.112;2023-04-01T14:47:48;11.30;1.00
314;DHT22;143;51.634;7.112;2023-04-01T14:50:24;11.20;1.00
314;DHT22;143;51.634;7.112;2023-04-01T14:55:52;11.30;1.00
314;DHT22;143;51.634;7.112;2023-04-01T14:58:20;11.30;1.00
314;DHT22;143;51.634;7.112;2023-04-01T15:01:10;11.50;1.00
314;DHT22;143;51.634;7.112;2023-04-01T15:06:54;11.30;1.00
314;DHT22;143;51.634;7.112;2023-04-01T15:09:42;11.10;1.00
314;DHT22;143;51.634;7.112;2023-04-01T15:18:13;11.30;1.00
314;DHT22;143;51.634;7.112;2023-04-01T15:48:49;11.50;1.00
314;DHT22;143;51.634;7.112;2023-04-01T15:51:28;11.70;1.00
314;DHT22;143;51.634;7.112;2023-04-01T16:05:15;11.60;1.00
314;DHT22;143;51.634;7.112;2023-04-01T16:11:23;11.60;1.00
314;DHT22;143;51.634;7.112;2023-04-01T16:22:08;11.60;1.00
314;DHT22;143;51.634;7.112;2023-04-01T16:27:40;11.60;1.00
314;DHT22;143;51.634;7.112;2023-04-01T16:33:46;11.60;1.00
314;DHT22;143;51.634;7.112;2023-04-01T16:39:46;11.60;1.00
314;DHT22;143;51.634;7.112;2023-04-01T16:42:32;11.70;1.00
314;DHT22;143;51.634;7.112;2023-04-01T16:47:51;11.60;1.00
314;DHT22;143;51.634;7.112;2023-04-01T16:50:24;11.40;1.00
314;DHT22;143;51.634;7.112;2023-04-01T16:55:50;11.60;1.00
314;DHT22;143;51.634;7.112;2023-04-01T16:58:26;11.60;1.00
314;DHT22;143;51.634;7.112;2023-04-01T17:01:02;11.60;1.00
314;DHT22;143;51.634;7.112;2023-04-01T17:03:45;11.70;1.00
314;DHT22;143;51.634;7.112;2023-04-01T17:11:54;11.60;1.00
314;DHT22;143;51.634;7.112;2023-04-01T17:14:31;11.70;1.00
314;DHT22;143;51.634;7.112;2023-04-01T17:19:56;11.70;1.00
314;DHT22;143;51.634;7.112;2023-04-01T17:31:13;11.70;1.00
314;DHT22;143;51.634;7.112;2023-04-01T17:33:40;11.70;1.00
314;DHT22;143;51.634;7.112;2023-04-01T17:42:00;11.80;1.00
314;DHT22;143;51.634;7.112;2023-04-01T17:53:14;11.90;1.00
314;DHT22;143;51.634;7.112;2023-04-01T18:06:59;12.00;1.00
314;DHT22;143;51.634;7.112;2023-04-01T18:12:56;12.00;1.00
314;DHT22;143;51.634;7.112;2023-04-01T18:16:02;11.90;1.00
314;DHT22;143;51.634;7.112;2023-04-01T18:24:31;11.90;1.00
314;DHT22;143;51.634;7.112;2023-04-01T18:27:11;11.90;1.00
314;DHT22;143;51.634;7.112;2023-04-01T18:32:16;11.80;1.00
314;DHT22;143;51.634;7.112;2023-04-01T18:37:44;12.00;1.00
314;DHT22;143;51.634;7.112;2023-04-01T18:40:20;11.90;1.00
314;DHT22;143;51.634;7.112;2023-04-01T18:45:59;11.60;1.00
314;DHT22;143;51.634;7.112;2023-04-01T18:51:46;11.50;1.00
314;DHT22;143;51.634;7.112;2023-04-01T18:57:20;11.50;1.00
314;DHT22;143;51.634;7.112;2023-04-01T19:00:06;11.40;1.00
314;DHT22;143;51.634;7.112;2023-04-01T19:02:46;11.50;1.00
314;DHT22;143;51.634;7.112;2023-04-01T19:05:34;11.40;1.00
314;DHT22;143;51.634;7.112;2023-04-01T19:11:13;11.40;1.00
314;DHT22;143;51.634;7.112;2023-04-01T19:16:21;11.30;1.00
314;DHT22;143;51.634;7.112;2023-04-01T19:38:19;10.90;1.00
314;DHT22;143;51.634;7.112;2023-04-01T19:49:20;10.90;1.00
314;DHT22;143;51.634;7.112;2023-04-01T19:51:53;10.70;1.00
314;DHT22;143;51.634;7.112;2023-04-01T20:00:37;10.40;1.00
314;DHT22;143;51.634;7.112;2023-04-01T20:14:46;10.20;1.00
314;DHT22;143;51.634;7.112;2023-04-01T20:20:02;10.50;1.00
314;DHT22;143;51.634;7.112;2023-04-01T20:25:20;10.50;1.00
314;DHT22;143;51.634;7.112;2023-04-01T20:28:19;10.30;1.00
314;DHT22;143;51.634;7.112;2023-04-01T20:31:04;10.20;1.00
314;DHT22;143;51.634;7.112;2023-04-01T20:33:46;10.30;1.00
314;DHT22;143;51.634;7.112;2023-04-01T20:36:33;10.10;1.00
314;DHT22;143;51.634;7.112;2023-04-01T20:42:27;9.90;1.00
314;DHT22;143;51.634;7.112;2023-04-01T20:50:31;9.80;1.00
314;DHT22;143;51.634;7.112;2023-04-01T20:53:16;9.80;1.00
314;DHT22;143;51.634;7.112;2023-04-01T20:58:50;9.90;1.00
314;DHT22;143;51.634;7.112;2023-04-01T21:01:32;10.00;1.00
314;DHT22;143;51.634;7.112;2023-04-01T21:06:54;9.90;1.00
314;DHT22;143;51.634;7.112;2023-04-01T21:15:46;9.90;1.00
314;DHT22;143;51.634;7.112;2023-04-01T21:17:56;9.80;1.00
314;DHT22;143;51.634;7.112;2023-04-01T21:26:04;9.60;1.00
314;DHT22;143;51.634;7.112;2023-04-01T21:31:23;9.50;1.00
314;DHT22;143;51.634;7.112;2023-04-01T21:40:22;9.30;1.00
314;DHT22;143;51.634;7.112;2023-04-01T21:45:58;9.40;1.00
314;DHT22;143;51.634;7.112;2023-04-01T21:48:57;9.50;1.00
314;DHT22;143;51.634;7.112;2023-04-01T21:51:50;9.20;1.00
314;DHT22;143;51.634;7.112;2023-04-01T22:00:11;9.20;1.00
314;DHT22;143;51.634;7.112;2023-04-01T22:05:38;9.20;1.00
314;DHT22;143;51.634;7.112;2023-04-01T22:13:23;9.20;1.00
314;DHT22;143;51.634;7.112;2023-04-01T22:15:58;9.20;1.00
314;DHT22;143;51.634;7.112;2023-04-01T22:18:31;9.30;1.00
314;DHT22;143;51.634;7.112;2023-04-01T22:34:42;8.80;1.00
314;DHT22;143;51.634;7.112;2023-04-01T22:37:18;8.70;1.00
314;DHT22;143;51.634;7.112;2023-04-01T22:42:41;8.70;1.00
314;DHT22;143;51.634;7.112;2023-04-01T22:45:20;8.50;1.00
314;DHT22;143;51.634;7.112;2023-04-01T22:56:09;8.80;1.00
314;DHT22;143;51.634;7.112;2023-04-01T22:58:42;8.70;1.00
314;DHT22;143;51.634;7.112;2023-04-01T23:01:19;8.60;1.00
314;DHT22;143;51.634;7.112;2023-04-01T23:03:49;8.60;1.00
314;DHT22;143;51.634;7.112;2023-04-01T23:06:26;8.80;1.00
314;DHT22;143;51.634;7.112;2023-04-01T23:09:13;8.60;1.00
314;DHT22;143;51.634;7.112;2023-04-01T23:11:58;8.60;1.00
314;DHT22;143;51.634;7.112;2023-04-01T23:14:39;8.30;1.00
314;DHT22;143;51.634;7.112;2023-04-01T23:17:33;8.60;1.00
314;DHT22;143;51.634;7.112;2023-04-01T23:20:26;8.30;1.00
314;DHT22;143;51.634;7.112;2023-04-01T23:25:39;8.40;1.00
314;DHT22;143;51.634;7.112;2023-04-01T23:36:13;8.60;1.00
314;DHT22;143;51.634;7.112;2023-04-01T23:38:41;8.60;1.00
314;DHT22;143;51.634;7.112;2023-04-01T23:41:16;8.30;1.00
314;DHT22;143;51.634;7.112;2023-04-01T23:43:43;8.20;1.00
314;DHT22;143;51.634;7.112;2023-04-01T23:46:12;8.30;1.00
314;DHT22;143;51.634;7.112;2023-04-01T23:48:43;8.10;1.00
314;DHT22;143;51.634;7.112;2023-04-01T23:53:45;8.00;1.00
314;DHT22;143;51.634;7.112;2023-04-01T23:56:11;8.00;1.00
